Terminal Aerodrome Forecast
Issued by NWS Lake Charles, LA

Home | Current Version | Previous Version | Text Only | Print | Product List | Glossary On
Versions: 1 2 3 4 5 6 7 8 9 10 11 12 13
880
FTUS44 KLCH 141120
TAFAEX
TAF
KAEX 141120Z 1412/1512 16005KT P6SM SCT035 BKN050
     FM141800 16010KT P6SM BKN025
     FM150200 15008KT P6SM VCSH OVC015 PROB30 1506/1512 3SM SHRA
      OVC008=

USA.gov is the U.S. government's official web portal to all federal, state and local government web resources and services.